sensor_id;sensor_type;location;lat;lon;timestamp;P1;durP1;ratioP1;P2;durP2;ratioP2
27576;SDS011;15011;53.380;10.034;2024-02-15T00:04:57;18.80;;;8.67;;
27576;SDS011;15011;53.380;10.034;2024-02-15T00:09:58;15.27;;;6.77;;
27576;SDS011;15011;53.380;10.034;2024-02-15T00:14:59;21.45;;;9.32;;
27576;SDS011;15011;53.380;10.034;2024-02-15T00:19:59;22.53;;;8.70;;
27576;SDS011;15011;53.380;10.034;2024-02-15T00:25:00;22.52;;;8.40;;
27576;SDS011;15011;53.380;10.034;2024-02-15T00:30:00;21.43;;;7.73;;
27576;SDS011;15011;53.380;10.034;2024-02-15T00:35:02;22.55;;;7.95;;
27576;SDS011;15011;53.380;10.034;2024-02-15T00:40:06;24.65;;;8.73;;
27576;SDS011;15011;53.380;10.034;2024-02-15T00:45:07;24.70;;;9.63;;
27576;SDS011;15011;53.380;10.034;2024-02-15T00:50:09;22.10;;;7.50;;
27576;SDS011;15011;53.380;10.034;2024-02-15T00:55:10;27.95;;;9.07;;
27576;SDS011;15011;53.380;10.034;2024-02-15T01:00:11;21.23;;;8.57;;
27576;SDS011;15011;53.380;10.034;2024-02-15T01:05:13;18.85;;;8.82;;
27576;SDS011;15011;53.380;10.034;2024-02-15T01:10:15;25.02;;;9.27;;
27576;SDS011;15011;53.380;10.034;2024-02-15T01:15:16;25.33;;;8.80;;
27576;SDS011;15011;53.380;10.034;2024-02-15T01:20:18;25.38;;;8.85;;
27576;SDS011;15011;53.380;10.034;2024-02-15T01:25:20;29.67;;;9.43;;
27576;SDS011;15011;53.380;10.034;2024-02-15T01:30:21;28.30;;;9.20;;
27576;SDS011;15011;53.380;10.034;2024-02-15T01:35:21;21.30;;;9.10;;
27576;SDS011;15011;53.380;10.034;2024-02-15T01:40:23;24.33;;;8.52;;
27576;SDS011;15011;53.380;10.034;2024-02-15T01:45:23;27.70;;;10.40;;
27576;SDS011;15011;53.380;10.034;2024-02-15T01:50:25;16.15;;;6.90;;
27576;SDS011;15011;53.380;10.034;2024-02-15T01:55:26;15.70;;;6.45;;
27576;SDS011;15011;53.380;10.034;2024-02-15T02:00:26;24.05;;;8.55;;
27576;SDS011;15011;53.380;10.034;2024-02-15T02:05:27;19.73;;;8.07;;
27576;SDS011;15011;53.380;10.034;2024-02-15T02:10:31;24.25;;;8.57;;
27576;SDS011;15011;53.380;10.034;2024-02-15T02:15:32;24.20;;;8.00;;
27576;SDS011;15011;53.380;10.034;2024-02-15T02:20:33;17.37;;;5.93;;
27576;SDS011;15011;53.380;10.034;2024-02-15T02:25:34;23.33;;;8.63;;
27576;SDS011;15011;53.380;10.034;2024-02-15T02:30:35;23.13;;;8.30;;
27576;SDS011;15011;53.380;10.034;2024-02-15T02:35:35;23.30;;;8.70;;
27576;SDS011;15011;53.380;10.034;2024-02-15T02:40:35;23.97;;;8.37;;
27576;SDS011;15011;53.380;10.034;2024-02-15T02:45:36;18.40;;;7.33;;
27576;SDS011;15011;53.380;10.034;2024-02-15T02:50:37;23.77;;;8.15;;
27576;SDS011;15011;53.380;10.034;2024-02-15T02:55:37;24.95;;;6.68;;
27576;SDS011;15011;53.380;10.034;2024-02-15T03:00:38;19.65;;;6.15;;
27576;SDS011;15011;53.380;10.034;2024-02-15T03:05:39;21.05;;;6.40;;
27576;SDS011;15011;53.380;10.034;2024-02-15T03:10:40;15.57;;;5.93;;
27576;SDS011;15011;53.380;10.034;2024-02-15T03:15:40;19.38;;;6.85;;
27576;SDS011;15011;53.380;10.034;2024-02-15T03:20:42;15.95;;;6.35;;
27576;SDS011;15011;53.380;10.034;2024-02-15T03:25:42;18.80;;;6.95;;
27576;SDS011;15011;53.380;10.034;2024-02-15T03:30:43;26.55;;;8.70;;
27576;SDS011;15011;53.380;10.034;2024-02-15T03:35:44;24.42;;;7.93;;
27576;SDS011;15011;53.380;10.034;2024-02-15T03:40:45;20.55;;;7.95;;
27576;SDS011;15011;53.380;10.034;2024-02-15T03:45:45;30.40;;;9.27;;
27576;SDS011;15011;53.380;10.034;2024-02-15T03:50:45;27.83;;;8.33;;
27576;SDS011;15011;53.380;10.034;2024-02-15T03:55:46;29.90;;;9.30;;
27576;SDS011;15011;53.380;10.034;2024-02-15T04:00:46;31.63;;;9.43;;
27576;SDS011;15011;53.380;10.034;2024-02-15T04:05:47;23.23;;;8.30;;
27576;SDS011;15011;53.380;10.034;2024-02-15T04:10:49;31.10;;;9.52;;
27576;SDS011;15011;53.380;10.034;2024-02-15T04:15:49;28.10;;;9.20;;
27576;SDS011;15011;53.380;10.034;2024-02-15T04:20:52;26.65;;;9.38;;
27576;SDS011;15011;53.380;10.034;2024-02-15T04:25:53;21.17;;;7.97;;
27576;SDS011;15011;53.380;10.034;2024-02-15T04:30:54;22.30;;;7.82;;
27576;SDS011;15011;53.380;10.034;2024-02-15T04:35:55;15.68;;;7.07;;
27576;SDS011;15011;53.380;10.034;2024-02-15T04:40:56;24.57;;;8.60;;
27576;SDS011;15011;53.380;10.034;2024-02-15T04:45:56;28.97;;;9.37;;
27576;SDS011;15011;53.380;10.034;2024-02-15T04:50:56;29.20;;;10.10;;
27576;SDS011;15011;53.380;10.034;2024-02-15T04:55:59;30.25;;;10.68;;
27576;SDS011;15011;53.380;10.034;2024-02-15T05:01:03;23.88;;;8.45;;
27576;SDS011;15011;53.380;10.034;2024-02-15T05:11:05;26.27;;;10.18;;
27576;SDS011;15011;53.380;10.034;2024-02-15T05:16:06;35.28;;;10.35;;
27576;SDS011;15011;53.380;10.034;2024-02-15T05:21:06;36.15;;;11.35;;
27576;SDS011;15011;53.380;10.034;2024-02-15T05:26:10;33.50;;;10.88;;
27576;SDS011;15011;53.380;10.034;2024-02-15T05:31:13;38.13;;;11.82;;
27576;SDS011;15011;53.380;10.034;2024-02-15T05:36:18;50.13;;;12.27;;
27576;SDS011;15011;53.380;10.034;2024-02-15T05:41:20;29.58;;;9.82;;
27576;SDS011;15011;53.380;10.034;2024-02-15T05:46:21;28.35;;;9.35;;
27576;SDS011;15011;53.380;10.034;2024-02-15T05:51:22;26.40;;;8.50;;
27576;SDS011;15011;53.380;10.034;2024-02-15T05:56:22;33.38;;;10.15;;
27576;SDS011;15011;53.380;10.034;2024-02-15T06:01:23;33.73;;;9.60;;
27576;SDS011;15011;53.380;10.034;2024-02-15T06:06:24;36.03;;;11.10;;
27576;SDS011;15011;53.380;10.034;2024-02-15T06:11:26;39.35;;;11.52;;
27576;SDS011;15011;53.380;10.034;2024-02-15T06:16:27;35.77;;;12.63;;
27576;SDS011;15011;53.380;10.034;2024-02-15T06:21:27;36.03;;;11.57;;
27576;SDS011;15011;53.380;10.034;2024-02-15T06:26:29;32.65;;;10.80;;
27576;SDS011;15011;53.380;10.034;2024-02-15T06:31:29;28.67;;;9.50;;
27576;SDS011;15011;53.380;10.034;2024-02-15T06:42:11;35.25;;;11.70;;
27576;SDS011;15011;53.380;10.034;2024-02-15T06:47:15;28.02;;;10.52;;
27576;SDS011;15011;53.380;10.034;2024-02-15T06:52:18;29.27;;;11.00;;
27576;SDS011;15011;53.380;10.034;2024-02-15T06:57:18;20.27;;;8.90;;
27576;SDS011;15011;53.380;10.034;2024-02-15T07:02:19;34.80;;;10.53;;
27576;SDS011;15011;53.380;10.034;2024-02-15T07:07:19;38.07;;;10.90;;
27576;SDS011;15011;53.380;10.034;2024-02-15T07:12:20;22.38;;;8.70;;
27576;SDS011;15011;53.380;10.034;2024-02-15T07:22:22;22.50;;;8.20;;
27576;SDS011;15011;53.380;10.034;2024-02-15T07:27:22;26.95;;;8.90;;
27576;SDS011;15011;53.380;10.034;2024-02-15T07:32:26;32.10;;;9.60;;
27576;SDS011;15011;53.380;10.034;2024-02-15T07:37:27;26.05;;;9.55;;
27576;SDS011;15011;53.380;10.034;2024-02-15T07:42:29;24.38;;;8.65;;
27576;SDS011;15011;53.380;10.034;2024-02-15T07:47:30;22.45;;;8.75;;
27576;SDS011;15011;53.380;10.034;2024-02-15T07:52:30;23.43;;;8.50;;
27576;SDS011;15011;53.380;10.034;2024-02-15T07:57:31;18.97;;;8.60;;
27576;SDS011;15011;53.380;10.034;2024-02-15T08:02:32;22.92;;;8.23;;
27576;SDS011;15011;53.380;10.034;2024-02-15T08:07:33;23.35;;;8.23;;
27576;SDS011;15011;53.380;10.034;2024-02-15T08:12:35;23.92;;;7.45;;
27576;SDS011;15011;53.380;10.034;2024-02-15T08:17:36;19.80;;;6.57;;
27576;SDS011;15011;53.380;10.034;2024-02-15T08:22:37;20.45;;;5.90;;
27576;SDS011;15011;53.380;10.034;2024-02-15T08:27:44;18.83;;;6.68;;
27576;SDS011;15011;53.380;10.034;2024-02-15T08:32:49;8.50;;;3.92;;
27576;SDS011;15011;53.380;10.034;2024-02-15T08:37:50;17.85;;;5.95;;
27576;SDS011;15011;53.380;10.034;2024-02-15T08:42:53;14.05;;;5.82;;
27576;SDS011;15011;53.380;10.034;2024-02-15T08:47:53;8.18;;;3.88;;
27576;SDS011;15011;53.380;10.034;2024-02-15T08:52:54;17.10;;;6.10;;
27576;SDS011;15011;53.380;10.034;2024-02-15T08:57:55;10.20;;;5.25;;
27576;SDS011;15011;53.380;10.034;2024-02-15T09:02:56;15.53;;;6.63;;
27576;SDS011;15011;53.380;10.034;2024-02-15T09:07:57;14.82;;;6.85;;
27576;SDS011;15011;53.380;10.034;2024-02-15T09:12:57;16.07;;;6.77;;
27576;SDS011;15011;53.380;10.034;2024-02-15T09:17:58;12.57;;;5.47;;
27576;SDS011;15011;53.380;10.034;2024-02-15T09:22:58;14.53;;;6.87;;
27576;SDS011;15011;53.380;10.034;2024-02-15T09:28:04;18.10;;;7.05;;
27576;SDS011;15011;53.380;10.034;2024-02-15T09:33:05;16.52;;;7.28;;
27576;SDS011;15011;53.380;10.034;2024-02-15T09:38:05;17.67;;;8.23;;
27576;SDS011;15011;53.380;10.034;2024-02-15T09:43:06;18.15;;;8.65;;
27576;SDS011;15011;53.380;10.034;2024-02-15T09:48:06;17.73;;;8.67;;
27576;SDS011;15011;53.380;10.034;2024-02-15T09:53:10;10.82;;;5.95;;
27576;SDS011;15011;53.380;10.034;2024-02-15T09:58:11;25.35;;;10.98;;
27576;SDS011;15011;53.380;10.034;2024-02-15T10:03:12;20.42;;;9.65;;
27576;SDS011;15011;53.380;10.034;2024-02-15T10:08:14;22.67;;;12.05;;
27576;SDS011;15011;53.380;10.034;2024-02-15T10:13:15;24.10;;;11.47;;
27576;SDS011;15011;53.380;10.034;2024-02-15T10:18:16;18.63;;;9.98;;
27576;SDS011;15011;53.380;10.034;2024-02-15T10:23:16;22.37;;;9.90;;
27576;SDS011;15011;53.380;10.034;2024-02-15T10:28:20;25.67;;;11.50;;
27576;SDS011;15011;53.380;10.034;2024-02-15T10:33:27;23.20;;;10.32;;
27576;SDS011;15011;53.380;10.034;2024-02-15T10:38:30;29.83;;;12.48;;
27576;SDS011;15011;53.380;10.034;2024-02-15T10:43:35;33.60;;;13.75;;
27576;SDS011;15011;53.380;10.034;2024-02-15T10:48:39;31.45;;;13.35;;
27576;SDS011;15011;53.380;10.034;2024-02-15T10:53:41;25.87;;;12.47;;
27576;SDS011;15011;53.380;10.034;2024-02-15T10:58:50;32.35;;;14.35;;
27576;SDS011;15011;53.380;10.034;2024-02-15T11:03:59;29.98;;;13.98;;
27576;SDS011;15011;53.380;10.034;2024-02-15T11:09:00;32.92;;;15.23;;
27576;SDS011;15011;53.380;10.034;2024-02-15T11:19:40;32.53;;;14.73;;
27576;SDS011;15011;53.380;10.034;2024-02-15T11:24:52;28.90;;;13.45;;
27576;SDS011;15011;53.380;10.034;2024-02-15T11:30:10;32.80;;;14.65;;
27576;SDS011;15011;53.380;10.034;2024-02-15T11:35:16;19.52;;;10.57;;
27576;SDS011;15011;53.380;10.034;2024-02-15T11:40:19;30.02;;;13.05;;
27576;SDS011;15011;53.380;10.034;2024-02-15T11:45:23;31.05;;;14.13;;
27576;SDS011;15011;53.380;10.034;2024-02-15T11:50:27;29.20;;;13.57;;
27576;SDS011;15011;53.380;10.034;2024-02-15T11:55:28;31.42;;;12.85;;
27576;SDS011;15011;53.380;10.034;2024-02-15T12:00:28;23.40;;;10.68;;
27576;SDS011;15011;53.380;10.034;2024-02-15T12:05:49;24.08;;;11.10;;
27576;SDS011;15011;53.380;10.034;2024-02-15T12:11:08;26.17;;;11.55;;
27576;SDS011;15011;53.380;10.034;2024-02-15T12:16:27;21.85;;;10.05;;
27576;SDS011;15011;53.380;10.034;2024-02-15T12:21:47;21.60;;;10.65;;
27576;SDS011;15011;53.380;10.034;2024-02-15T12:26:48;24.63;;;10.27;;
27576;SDS011;15011;53.380;10.034;2024-02-15T12:31:49;18.73;;;9.68;;
27576;SDS011;15011;53.380;10.034;2024-02-15T12:36:50;14.47;;;7.90;;
27576;SDS011;15011;53.380;10.034;2024-02-15T12:41:52;12.65;;;6.68;;
27576;SDS011;15011;53.380;10.034;2024-02-15T12:46:56;10.00;;;5.93;;
27576;SDS011;15011;53.380;10.034;2024-02-15T12:57:35;13.07;;;6.63;;
27576;SDS011;15011;53.380;10.034;2024-02-15T13:02:39;7.97;;;5.40;;
27576;SDS011;15011;53.380;10.034;2024-02-15T13:07:40;10.23;;;5.22;;
27576;SDS011;15011;53.380;10.034;2024-02-15T13:12:41;6.65;;;4.32;;
27576;SDS011;15011;53.380;10.034;2024-02-15T13:17:43;6.90;;;4.53;;
27576;SDS011;15011;53.380;10.034;2024-02-15T13:22:46;9.05;;;4.85;;
27576;SDS011;15011;53.380;10.034;2024-02-15T13:27:49;6.82;;;4.55;;
27576;SDS011;15011;53.380;10.034;2024-02-15T13:32:51;7.75;;;3.63;;
27576;SDS011;15011;53.380;10.034;2024-02-15T13:37:52;9.27;;;5.87;;
27576;SDS011;15011;53.380;10.034;2024-02-15T13:42:58;10.10;;;5.65;;
27576;SDS011;15011;53.380;10.034;2024-02-15T13:48:00;7.20;;;4.93;;
27576;SDS011;15011;53.380;10.034;2024-02-15T13:53:02;8.70;;;4.97;;
27576;SDS011;15011;53.380;10.034;2024-02-15T13:58:03;10.32;;;6.15;;
27576;SDS011;15011;53.380;10.034;2024-02-15T14:03:04;13.77;;;7.18;;
27576;SDS011;15011;53.380;10.034;2024-02-15T14:08:06;10.27;;;6.00;;
27576;SDS011;15011;53.380;10.034;2024-02-15T14:13:08;13.35;;;6.35;;
27576;SDS011;15011;53.380;10.034;2024-02-15T14:18:10;9.98;;;6.40;;
27576;SDS011;15011;53.380;10.034;2024-02-15T14:23:11;9.05;;;6.65;;
27576;SDS011;15011;53.380;10.034;2024-02-15T14:28:13;11.02;;;6.47;;
27576;SDS011;15011;53.380;10.034;2024-02-15T14:33:14;8.80;;;5.88;;
27576;SDS011;15011;53.380;10.034;2024-02-15T14:38:16;8.30;;;5.63;;
27576;SDS011;15011;53.380;10.034;2024-02-15T14:43:25;9.32;;;6.07;;
27576;SDS011;15011;53.380;10.034;2024-02-15T14:48:26;7.07;;;4.95;;
27576;SDS011;15011;53.380;10.034;2024-02-15T14:53:27;7.45;;;5.30;;
27576;SDS011;15011;53.380;10.034;2024-02-15T14:58:27;9.95;;;6.10;;
27576;SDS011;15011;53.380;10.034;2024-02-15T15:03:31;7.63;;;5.77;;
27576;SDS011;15011;53.380;10.034;2024-02-15T15:08:38;9.73;;;5.38;;
27576;SDS011;15011;53.380;10.034;2024-02-15T15:13:57;9.30;;;6.38;;
27576;SDS011;15011;53.380;10.034;2024-02-15T15:18:58;7.20;;;5.60;;
27576;SDS011;15011;53.380;10.034;2024-02-15T15:23:58;7.45;;;5.93;;
27576;SDS011;15011;53.380;10.034;2024-02-15T15:28:59;10.33;;;7.17;;
27576;SDS011;15011;53.380;10.034;2024-02-15T15:33:59;8.18;;;5.65;;
27576;SDS011;15011;53.380;10.034;2024-02-15T15:39:00;9.17;;;6.53;;
27576;SDS011;15011;53.380;10.034;2024-02-15T15:44:01;10.57;;;6.53;;
27576;SDS011;15011;53.380;10.034;2024-02-15T15:49:01;9.80;;;5.40;;
27576;SDS011;15011;53.380;10.034;2024-02-15T15:54:04;7.07;;;5.13;;
27576;SDS011;15011;53.380;10.034;2024-02-15T15:59:04;9.90;;;6.17;;
27576;SDS011;15011;53.380;10.034;2024-02-15T16:04:06;8.55;;;6.05;;
27576;SDS011;15011;53.380;10.034;2024-02-15T16:09:06;10.25;;;7.43;;
27576;SDS011;15011;53.380;10.034;2024-02-15T16:14:09;7.82;;;6.90;;
27576;SDS011;15011;53.380;10.034;2024-02-15T16:19:11;11.77;;;6.78;;
27576;SDS011;15011;53.380;10.034;2024-02-15T16:24:11;12.47;;;6.53;;
27576;SDS011;15011;53.380;10.034;2024-02-15T16:29:12;7.70;;;4.97;;
27576;SDS011;15011;53.380;10.034;2024-02-15T16:34:13;10.03;;;6.07;;
27576;SDS011;15011;53.380;10.034;2024-02-15T16:39:13;10.07;;;6.68;;
27576;SDS011;15011;53.380;10.034;2024-02-15T16:44:14;12.27;;;6.57;;
27576;SDS011;15011;53.380;10.034;2024-02-15T16:49:16;11.98;;;6.85;;
27576;SDS011;15011;53.380;10.034;2024-02-15T16:54:16;10.40;;;6.47;;
27576;SDS011;15011;53.380;10.034;2024-02-15T16:59:17;13.90;;;7.03;;
27576;SDS011;15011;53.380;10.034;2024-02-15T17:04:19;9.00;;;6.20;;
27576;SDS011;15011;53.380;10.034;2024-02-15T17:09:20;10.10;;;6.10;;
27576;SDS011;15011;53.380;10.034;2024-02-15T17:14:21;10.50;;;6.32;;
27576;SDS011;15011;53.380;10.034;2024-02-15T17:19:21;15.83;;;7.40;;
27576;SDS011;15011;53.380;10.034;2024-02-15T17:24:21;11.17;;;7.30;;
27576;SDS011;15011;53.380;10.034;2024-02-15T17:29:22;9.75;;;7.40;;
27576;SDS011;15011;53.380;10.034;2024-02-15T17:34:23;11.83;;;7.20;;
27576;SDS011;15011;53.380;10.034;2024-02-15T17:39:24;9.65;;;7.13;;
27576;SDS011;15011;53.380;10.034;2024-02-15T17:44:24;13.30;;;6.27;;
27576;SDS011;15011;53.380;10.034;2024-02-15T17:49:24;12.07;;;6.70;;
27576;SDS011;15011;53.380;10.034;2024-02-15T17:59:26;13.43;;;8.77;;
27576;SDS011;15011;53.380;10.034;2024-02-15T18:04:26;16.63;;;10.10;;
27576;SDS011;15011;53.380;10.034;2024-02-15T18:09:27;11.45;;;8.10;;
27576;SDS011;15011;53.380;10.034;2024-02-15T18:14:28;10.57;;;7.25;;
27576;SDS011;15011;53.380;10.034;2024-02-15T18:19:29;11.27;;;6.97;;
27576;SDS011;15011;53.380;10.034;2024-02-15T18:24:29;10.25;;;6.53;;
27576;SDS011;15011;53.380;10.034;2024-02-15T18:29:29;9.47;;;5.90;;
27576;SDS011;15011;53.380;10.034;2024-02-15T18:34:31;12.40;;;7.25;;
27576;SDS011;15011;53.380;10.034;2024-02-15T18:39:32;11.23;;;6.33;;
27576;SDS011;15011;53.380;10.034;2024-02-15T18:44:34;11.63;;;7.05;;
27576;SDS011;15011;53.380;10.034;2024-02-15T18:49:35;12.25;;;7.38;;
27576;SDS011;15011;53.380;10.034;2024-02-15T18:54:40;12.60;;;7.10;;
27576;SDS011;15011;53.380;10.034;2024-02-15T18:59:43;14.40;;;7.65;;
27576;SDS011;15011;53.380;10.034;2024-02-15T19:04:48;14.48;;;8.50;;
27576;SDS011;15011;53.380;10.034;2024-02-15T19:09:49;12.95;;;7.60;;
27576;SDS011;15011;53.380;10.034;2024-02-15T19:14:50;13.05;;;7.38;;
27576;SDS011;15011;53.380;10.034;2024-02-15T19:19:50;14.30;;;7.33;;
27576;SDS011;15011;53.380;10.034;2024-02-15T19:24:51;11.00;;;7.00;;
27576;SDS011;15011;53.380;10.034;2024-02-15T19:29:51;10.93;;;7.43;;
27576;SDS011;15011;53.380;10.034;2024-02-15T19:34:53;12.98;;;5.70;;
27576;SDS011;15011;53.380;10.034;2024-02-15T19:39:53;13.45;;;7.82;;
27576;SDS011;15011;53.380;10.034;2024-02-15T19:44:54;11.75;;;6.70;;
27576;SDS011;15011;53.380;10.034;2024-02-15T19:49:54;9.52;;;6.13;;
27576;SDS011;15011;53.380;10.034;2024-02-15T19:54:55;7.70;;;5.50;;
27576;SDS011;15011;53.380;10.034;2024-02-15T19:59:56;6.15;;;4.28;;
27576;SDS011;15011;53.380;10.034;2024-02-15T20:04:57;10.23;;;5.63;;
27576;SDS011;15011;53.380;10.034;2024-02-15T20:09:57;8.93;;;5.00;;
27576;SDS011;15011;53.380;10.034;2024-02-15T20:14:58;7.97;;;4.77;;
27576;SDS011;15011;53.380;10.034;2024-02-15T20:19:58;7.17;;;4.57;;
27576;SDS011;15011;53.380;10.034;2024-02-15T20:24:59;10.27;;;4.73;;
27576;SDS011;15011;53.380;10.034;2024-02-15T20:30:04;11.50;;;4.95;;
27576;SDS011;15011;53.380;10.034;2024-02-15T20:40:06;8.15;;;4.75;;
27576;SDS011;15011;53.380;10.034;2024-02-15T20:50:07;7.10;;;4.38;;
27576;SDS011;15011;53.380;10.034;2024-02-15T20:55:13;5.18;;;3.72;;
27576;SDS011;15011;53.380;10.034;2024-02-15T21:00:13;4.88;;;3.97;;
27576;SDS011;15011;53.380;10.034;2024-02-15T21:05:14;6.05;;;3.72;;
27576;SDS011;15011;53.380;10.034;2024-02-15T21:10:15;6.80;;;4.37;;
27576;SDS011;15011;53.380;10.034;2024-02-15T21:15:15;5.82;;;3.97;;
27576;SDS011;15011;53.380;10.034;2024-02-15T21:20:16;9.65;;;3.70;;
27576;SDS011;15011;53.380;10.034;2024-02-15T21:25:18;5.97;;;3.42;;
27576;SDS011;15011;53.380;10.034;2024-02-15T21:30:18;5.75;;;3.67;;
27576;SDS011;15011;53.380;10.034;2024-02-15T21:35:19;5.22;;;3.22;;
27576;SDS011;15011;53.380;10.034;2024-02-15T21:40:20;5.82;;;3.83;;
27576;SDS011;15011;53.380;10.034;2024-02-15T21:45:20;8.15;;;3.72;;
27576;SDS011;15011;53.380;10.034;2024-02-15T21:50:20;8.43;;;3.58;;
27576;SDS011;15011;53.380;10.034;2024-02-15T21:55:21;6.43;;;3.83;;
27576;SDS011;15011;53.380;10.034;2024-02-15T22:00:22;7.82;;;3.80;;
27576;SDS011;15011;53.380;10.034;2024-02-15T22:05:22;5.80;;;4.23;;
27576;SDS011;15011;53.380;10.034;2024-02-15T22:10:22;6.90;;;3.80;;
27576;SDS011;15011;53.380;10.034;2024-02-15T22:15:23;4.57;;;3.40;;
27576;SDS011;15011;53.380;10.034;2024-02-15T22:20:24;5.95;;;3.95;;
27576;SDS011;15011;53.380;10.034;2024-02-15T22:25:24;5.60;;;3.72;;
27576;SDS011;15011;53.380;10.034;2024-02-15T22:30:25;5.63;;;3.50;;
27576;SDS011;15011;53.380;10.034;2024-02-15T22:35:25;5.37;;;3.40;;
27576;SDS011;15011;53.380;10.034;2024-02-15T22:40:26;5.47;;;3.88;;
27576;SDS011;15011;53.380;10.034;2024-02-15T22:45:26;7.47;;;3.93;;
27576;SDS011;15011;53.380;10.034;2024-02-15T22:50:27;5.72;;;3.70;;
27576;SDS011;15011;53.380;10.034;2024-02-15T22:55:27;5.70;;;3.10;;
27576;SDS011;15011;53.380;10.034;2024-02-15T23:00:28;6.27;;;3.27;;
27576;SDS011;15011;53.380;10.034;2024-02-15T23:05:30;4.68;;;3.35;;
27576;SDS011;15011;53.380;10.034;2024-02-15T23:10:32;5.32;;;3.28;;
27576;SDS011;15011;53.380;10.034;2024-02-15T23:15:32;5.32;;;3.08;;
27576;SDS011;15011;53.380;10.034;2024-02-15T23:20:33;5.80;;;2.90;;
27576;SDS011;15011;53.380;10.034;2024-02-15T23:25:33;4.70;;;2.20;;
27576;SDS011;15011;53.380;10.034;2024-02-15T23:30:35;3.97;;;2.83;;
27576;SDS011;15011;53.380;10.034;2024-02-15T23:35:37;3.35;;;2.45;;
27576;SDS011;15011;53.380;10.034;2024-02-15T23:40:47;3.55;;;2.53;;
27576;SDS011;15011;53.380;10.034;2024-02-15T23:45:48;6.60;;;2.50;;
27576;SDS011;15011;53.380;10.034;2024-02-15T23:50:48;5.15;;;2.60;;
27576;SDS011;15011;53.380;10.034;2024-02-15T23:55:49;3.93;;;2.73;;
